Houstonia, Missouri
Current Conditions -  °F | °C
As of 3:58 AM on Wednesday 26 Nov 2014 (Local Time) from KSZL Reporting Station
Few Clouds Few Clouds  
Wind Chill: 29°   Ceiling: Unl
Heat Index: 35°   Visibility: 10mi
Dew Point: 22°   Wind: 7mph
Humidity: 60%   Direction: 170°S
Pressure: 29.97"   Gusts: NA
Location:  38.9°N, 93.36°W
Report Text: KSZL 260958Z AUTO 17006KT 10SM FEW080 02/M06 A2997 RMK AO2 SLP158 T00151056 $
Loading
Personal Weather Stations






























Interactive Weather Map New forecast layout! Learn more

10-Day Weather Forecast

Advertisements
Track Severe Weather on mobile